Data for 07/31/2015

Time Sea-Level Adjusted Pressure Absolute Pressure Temperature Relative Humidity Dew Point   
(mb) (inHg) (mb) (inHg) (C) (F) (%) (C) (F)
00:05 1026 30.3 855 25.25 18.1 64.6 36 3 37.5
00:10 1026 30.3 855 25.25 18.1 64.6 39 4 39.1
00:15 1026 30.3 855 25.25 17.8 64.1 37 3.2 37.7
00:20 1026 30.3 855 25.25 17.9 64.1 37 3.2 37.7
00:25 1026 30.3 855 25.25 17.6 63.7 41 4.3 39.8
00:30 1026 30.3 855 25.25 17.3 63.1 40 3.6 38.5
00:35 1026 30.3 855 25.25 17.2 63 39 3.2 37.8
00:40 1026 30.3 855 25.25 17.2 62.9 42 4.1 39.5
00:45 1026 30.3 855 25.25 16.3 61.4 45 4.5 40
00:50 1026 30.3 855 25.25 16 60.8 44 4 39.1
00:55 1026 30.3 855 25.25 16.3 61.3 42 3.4 38.2
01:00 1026 30.3 855 25.25 16.3 61.4 44 4.2 39.5
01:05 1026 30.3 855 25.25 16.1 60.9 45 4.3 39.7
01:10 1026 30.3 855 25.25 15.9 60.6 44 3.9 39
01:15 1026 30.3 855 25.25 16 60.9 43 3.6 38.5
01:20 1026 30.3 855 25.25 16.5 61.6 40 3 37.3
01:25 1026 30.3 855 25.25 16.8 62.3 40 3.4 38.2
01:30 1026 30.3 855 25.25 16.9 62.4 41 3.7 38.6
01:35 1026 30.3 855 25.25 16.3 61.3 49 5.7 42.2
01:40 1026 30.3 855 25.25 15.8 60.4 48 4.7 40.5
01:45 1026 30.3 855 25.25 15.4 59.7 45 3.6 38.5
01:50 1026 30.3 855 25.25 15.7 60.3 43 3.4 38.1
01:55 1026 30.3 855 25.25 15.3 59.6 48 4.4 39.9
02:00 1026 30.3 855 25.25 14.8 58.7 46 3.4 38.1
02:05 1026 30.3 855 25.25 14.8 58.6 48 3.8 38.9
02:10 1026 30.3 855 25.25 14.7 58.4 47 3.4 38.2
02:15 1026 30.3 855 25.25 14.9 58.8 46 3.5 38.2
02:20 1026 30.3 855 25.25 15.2 59.4 43 2.8 37
02:25 1026 30.3 855 25.25 15.8 60.5 41 2.5 36.6
02:30 1026 30.3 855 25.25 16.4 61.4 39 2.6 36.7
02:35 1026 30.3 855 25.25 16.2 61.2 41 3.1 37.6
02:40 1026 30.3 855 25.25 15.7 60.3 43 3.3 38
02:45 1026 30.3 855 25.25 15.3 59.5 45 3.4 38
02:50 1026 30.3 855 25.25 15.2 59.4 44 3.1 37.5
02:55 1026 30.3 855 25.25 15.3 59.6 44 3.2 37.7
03:00 1026 30.3 855 25.25 15.6 60.1 41 2.6 36.7
03:05 1026 30.3 855 25.25 16.2 61.1 40 2.8 37
03:10 1026 30.3 855 25.25 16 60.7 42 3.1 37.7
03:15 1026 30.3 855 25.25 15.5 59.9 47 4.2 39.5
03:20 1026 30.3 855 25.25 14.6 58.3 46 3.1 37.5
03:25 1026 30.3 855 25.25 14.6 58.3 47 3.4 38.2
03:30 1026 30.3 855 25.25 14.4 58 46 3.2 37.8
03:35 1026 30.3 856 25.28 14.5 58.1 46 3 37.3
03:40 1026 30.3 855 25.25 14.7 58.5 45 3 37.5
03:45 1026 30.3 855 25.25 15 59 43 2.6 36.7
03:50 1026 30.3 855 25.25 15.6 60 44 3.6 38.4
03:55 1026 30.3 855 25.25 14.5 58.1 49 4 39.2
04:00 1026 30.3 855 25.25 14 57.2 49 3.6 38.5
04:05 1026 30.3 855 25.25 13.9 57.1 48 3.1 37.5
04:10 1026 30.3 855 25.25 14.6 58.2 46 3 37.5
04:15 1026 30.3 856 25.28 14.7 58.5 47 3.8 38.8
04:20 1026 30.3 856 25.28 14.3 57.8 48 3.6 38.4
04:25 1026 30.3 856 25.28 14.4 57.9 48 3.7 38.6
04:30 1026 30.3 856 25.28 13.9 57 51 4.1 39.4
04:35 1026 30.3 856 25.28 13.3 55.9 51 3.4 38.1
04:40 1026 30.3 856 25.28 13.8 56.8 48 3 37.4
04:45 1026 30.3 856 25.28 14 57.3 49 3.6 38.6
04:50 1026 30.3 856 25.28 14.3 57.8 47 3.1 37.7
04:55 1026 30.3 856 25.28 14.5 58.1 47 3.4 38.2
05:00 1027 30.33 856 25.28 14.4 57.9 47 3.4 38.1
05:05 1027 30.33 856 25.28 14.3 57.7 47 3.3 37.9
05:10 1027 30.33 856 25.28 14.6 58.2 46 3.2 37.8
05:15 1027 30.33 856 25.28 15 58.9 46 3.4 38.1
05:20 1027 30.33 856 25.28 14.9 58.8 46 3.6 38.4
05:25 1027 30.33 856 25.28 14.7 58.5 47 3.6 38.5
05:30 1027 30.33 856 25.28 14.6 58.3 48 3.7 38.7
05:35 1027 30.33 856 25.28 14.5 58.1 49 4 39.1
05:40 1027 30.33 856 25.28 14.3 57.7 49 3.9 39
05:45 1027 30.33 856 25.28 14.2 57.6 50 3.9 39.1
05:50 1027 30.33 856 25.28 14.4 58 49 3.9 39
05:55 1027 30.33 856 25.28 14.6 58.3 48 3.9 39.1
06:00 1027 30.33 856 25.28 14.8 58.6 47 3.7 38.7
06:05 1027 30.33 856 25.28 14.9 58.8 48 4 39.2
06:10 1027 30.33 856 25.28 14.8 58.6 48 3.9 39.1
06:15 1027 30.33 856 25.28 14.6 58.3 49 4.2 39.5
06:20 1027 30.33 856 25.28 14.4 58 50 4.1 39.4
06:25 1027 30.33 856 25.28 14.7 58.4 49 4.1 39.5
06:30 1027 30.33 856 25.28 15 58.9 49 4.4 39.9
06:35 1027 30.33 856 25.28 15.3 59.5 47 4.2 39.6
06:40 1027 30.33 856 25.28 15.6 60.1 46 4.1 39.3
06:45 1027 30.33 856 25.28 16 60.7 46 4.5 40.2
06:50 1027 30.33 856 25.28 16.3 61.3 46 4.8 40.7
06:55 1027 30.33 856 25.28 16.5 61.7 47 5.1 41.2
07:00 1027 30.33 856 25.28 16.8 62.2 47 5.4 41.8
07:05 1027 30.33 856 25.28 17.1 62.8 48 6.1 42.9
07:10 1027 30.33 856 25.28 17.1 62.7 48 6.1 43.1
07:15 1027 30.33 856 25.28 17.2 62.9 45 5.2 41.4
07:20 1027 30.33 856 25.28 17.3 63.2 46 5.6 42.1
07:25 1027 30.33 856 25.28 17.7 63.8 43 5.2 41.3
07:30 1027 30.33 856 25.28 17.9 64.2 45 6 42.8
07:35 1027 30.33 856 25.28 18.3 65 46 6.6 43.9
07:40 1027 30.33 856 25.28 18.9 66.1 43 6.1 43
07:45 1027 30.33 856 25.28 19.2 66.5 40 5.4 41.8
07:50 1027 30.33 856 25.28 20 68 40 6.3 43.4
07:55 1027 30.33 856 25.28 20.5 68.9 36 5.2 41.4
08:00 1027 30.33 856 25.28 20.9 69.7 35 5.2 41.4
08:05 1027 30.33 856 25.28 22 71.6 33 5.4 41.7
08:10 1027 30.33 856 25.28 22.5 72.5 32 5.3 41.5
08:15 1027 30.33 856 25.28 22.3 72.2 34 5.8 42.5
08:20 1027 30.33 856 25.28 22.5 72.4 32 5 41
08:25 1027 30.33 856 25.28 23.2 73.7 30 4.7 40.4
08:30 1027 30.33 856 25.28 22.9 73.2 30 4.5 40
08:35 1027 30.33 856 25.28 22.8 73 31 5 41
08:40 1027 30.33 856 25.28 23 73.4 30 4.8 40.7
08:45 1027 30.33 856 25.28 23 73.4 30 4.6 40.3
08:50 1027 30.33 856 25.28 23.1 73.6 29 4.5 40.1
08:55 1027 30.33 856 25.28 23.4 74.1 28 4 39.3
09:00 1027 30.33 856 25.28 23.6 74.5 28 4.3 39.8
09:05 1027 30.33 856 25.28 23.8 74.8 31 5.7 42.2
09:10 1027 30.33 856 25.28 23.5 74.3 32 6.1 42.9
09:15 1027 30.33 856 25.28 22.7 72.9 34 6.2 43.2
09:20 1027 30.33 856 25.28 23.4 74 33 6.4 43.4
09:25 1027 30.33 856 25.28 23.5 74.3 31 5.7 42.3
09:30 1027 30.33 856 25.28 23.9 75.1 29 5.2 41.4
09:35 1027 30.33 856 25.28 24.6 76.3 29 5.5 41.9
09:40 1027 30.33 856 25.28 25 77 28 5.3 41.6
09:45 1027 30.33 856 25.28 25.2 77.3 26 4.6 40.3
09:50 1027 30.33 856 25.28 25.5 78 26 5.1 41.2
09:55 1027 30.33 856 25.28 25.9 78.6 26 5.2 41.3
10:00 1026 30.3 856 25.28 26.3 79.4 23 3.9 39.1
10:05 1026 30.3 856 25.28 26.7 80 25 5.2 41.3
10:10 1026 30.3 856 25.28 26.2 79.2 25 5.1 41.2
10:15 1026 30.3 856 25.28 26.2 79.1 25 5 41
10:20 1026 30.3 856 25.28 26.4 79.5 24 4.5 40.1
10:25 1026 30.3 856 25.28 25.9 78.6 25 4.5 40
10:30 1026 30.3 856 25.28 26.3 79.3 23 3.9 39
10:35 1026 30.3 856 25.28 27.4 81.3 20 3.1 37.6
10:40 1026 30.3 856 25.28 27.8 82 20 3.2 37.7
10:45 1026 30.3 856 25.28 27.7 81.9 19 2.4 36.3
10:50 1026 30.3 856 25.28 27.9 82.1 21 3.6 38.5
10:55 1026 30.3 856 25.28 27.5 81.5 21 3.4 38.2
11:00 1026 30.3 856 25.28 27.6 81.6 21 3.5 38.3
11:05 1026 30.3 855 25.25 27.9 82.2 20 3.4 38.2
11:10 1026 30.3 855 25.25 28 82.3 20 3 37.4
11:15 1026 30.3 855 25.25 28.4 83.2 19 3 37.4
11:20 1026 30.3 855 25.25 29.1 84.3 18 2.8 37
11:25 1026 30.3 855 25.25 28.8 83.9 18 2.5 36.5
11:30 1026 30.3 855 25.25 28.5 83.4 21 4.3 39.8
11:35 1026 30.3 855 25.25 28.4 83.2 18 2.4 36.3
11:40 1026 30.3 855 25.25 28.9 83.9 19 3.2 37.8
11:45 1026 30.3 855 25.25 28.9 83.9 19 3.1 37.7
11:50 1026 30.3 855 25.25 28.9 83.9 19 3.3 37.9
11:55 1026 30.3 855 25.25 28.1 82.5 19 2.9 37.2
12:00 1026 30.3 855 25.25 28.3 82.9 20 3.8 38.9
12:05 1026 30.3 855 25.25 28.2 82.8 18 2.2 36
12:10 1026 30.3 855 25.25 28.9 84 18 2.5 36.4
12:15 1026 30.3 855 25.25 29.2 84.5 18 2.8 37.1
12:20 1026 30.3 855 25.25 29.4 84.8 16 1.6 34.8
12:25 1026 30.3 855 25.25 29.3 84.7 15 0.5 32.8
12:30 1026 30.3 855 25.25 29.5 85.2 18 3 37.4
12:35 1026 30.3 855 25.25 30.2 86.4 14 0.4 32.6
12:40 1026 30.3 855 25.25 30.4 86.6 15 0.7 33.3
12:45 1026 30.3 855 25.25 30.4 86.8 14 0.2 32.3
12:50 1026 30.3 855 25.25 29.9 85.7 16 1.6 34.9
12:55 1025 30.27 855 25.25 29.4 84.9 14 -0.5 31.1
13:00 1025 30.27 855 25.25 28.8 83.9 16 0.5 32.9
13:05 1025 30.27 855 25.25 29.5 85 15 0.4 32.7
13:10 1025 30.27 855 25.25 29.5 85.2 15 0.4 32.7
13:15 1025 30.27 854 25.22 30 86 15 0.8 33.5
13:20 1025 30.27 854 25.22 30 85.9 14 0.1 32.2
13:25 1025 30.27 854 25.22 29.1 84.5 15 0.6 33.1
13:30 1025 30.27 854 25.22 29.7 85.5 14 -0.5 31.1
13:35 1025 30.27 854 25.22 29.4 84.9 15 0.3 32.5
13:40 1025 30.27 854 25.22 30.4 86.7 14 0.2 32.4
13:45 1025 30.27 854 25.22 30.5 86.8 14 0.7 33.2
13:50 1025 30.27 854 25.22 31 87.7 13 -0.1 31.8
13:55 1025 30.27 854 25.22 30.9 87.7 14 0.2 32.4
14:00 1025 30.27 854 25.22 30.6 87 13 -0.8 30.5
14:05 1025 30.27 854 25.22 30.5 86.9 13 -0.5 31.1
14:10 1025 30.27 854 25.22 30.5 86.9 13 -0.6 30.9
14:15 1025 30.27 854 25.22 30.2 86.3 13 -0.7 30.7
14:20 1025 30.27 854 25.22 30.2 86.4 13 -1.3 29.7
14:25 1025 30.27 854 25.22 30.1 86.1 13 -1 30.2
14:30 1025 30.27 854 25.22 30.6 87 12 -1.3 29.7
14:35 1025 30.27 854 25.22 29.9 85.8 13 -1.5 29.4
14:40 1025 30.27 854 25.22 29.4 84.9 12 -2.4 27.6
14:45 1025 30.27 854 25.22 29.4 85 12 -2.6 27.4
14:50 1025 30.27 854 25.22 29.8 85.6 13 -1.7 28.9
14:55 1025 30.27 854 25.22 30.7 87.3 11 -3.2 26.2
15:00 1024 30.24 854 25.22 30.7 87.2 11 -2.4 27.6
15:05 1024 30.24 854 25.22 30.4 86.7 11 -2.6 27.3
15:10 1024 30.24 854 25.22 30.4 86.8 12 -2 28.4
15:15 1024 30.24 854 25.22 30.6 87.1 12 -2.1 28.2
15:20 1024 30.24 854 25.22 31 87.8 11 -2.4 27.7
15:25 1024 30.24 853 25.19 31.3 88.3 12 -1.2 29.8
15:30 1024 30.24 853 25.19 30.4 86.8 11 -2.5 27.6
15:35 1024 30.24 853 25.19 31 87.7 11 -2.8 27
15:40 1024 30.24 853 25.19 30.5 86.8 12 -1.8 28.7
15:45 1024 30.24 853 25.19 31 87.8 12 -1.4 29.6
15:50 1024 30.24 853 25.19 30.7 87.2 12 -2.2 28.1
15:55 1024 30.24 853 25.19 31.2 88.2 11 -2.1 28.2
16:00 1024 30.24 853 25.19 31.9 89.3 10 -2.8 27
16:05 1024 30.24 853 25.19 32.1 89.8 10 -3 26.7
16:10 1024 30.24 853 25.19 31.9 89.5 11 -2.4 27.7
16:15 1024 30.24 853 25.19 31.5 88.8 10 -2.9 26.8
16:20 1024 30.24 853 25.19 32 89.5 10 -3.1 26.5
16:25 1024 30.24 853 25.19 32.4 90.3 10 -2.4 27.7
16:30 1024 30.24 853 25.19 32 89.6 11 -2.2 28.1
16:35 1024 30.24 853 25.19 31.7 89 11 -1.5 29.3
16:40 1024 30.24 853 25.19 30.9 87.7 11 -2.1 28.3
16:45 1024 30.24 853 25.19 30.6 87 12 -1.4 29.4
16:50 1024 30.24 853 25.19 30.8 87.4 12 -1.8 28.8
16:55 1023 30.21 853 25.19 30.7 87.2 11 -2.7 27.1
17:00 1023 30.21 853 25.19 30.5 86.8 11 -2.5 27.6
17:05 1023 30.21 853 25.19 30 85.9 12 -2.6 27.3
17:10 1023 30.21 853 25.19 30.2 86.3 11 -3.5 25.7
17:15 1023 30.21 853 25.19 30.4 86.8 11 -3 26.6
17:20 1023 30.21 853 25.19 30.9 87.6 10 -3.5 25.6
17:25 1023 30.21 852 25.16 31.2 88.2 11 -2.3 27.8
17:30 1023 30.21 852 25.16 31.4 88.4 11 -2.4 27.7
17:35 1023 30.21 852 25.16 30.4 86.7 12 -2.3 27.8
17:40 1023 30.21 852 25.16 30.5 86.9 11 -2.5 27.5
17:45 1023 30.21 852 25.16 30.6 87 11 -2.4 27.7
17:50 1023 30.21 852 25.16 30.2 86.3 12 -2.5 27.5
17:55 1023 30.21 852 25.16 29.7 85.4 12 -2.6 27.3
18:00 1023 30.21 852 25.16 30 85.9 11 -3 26.6
18:05 1023 30.21 852 25.16 29.8 85.6 12 -2.1 28.2
18:10 1023 30.21 852 25.16 29.5 85 13 -1.7 28.9
18:15 1023 30.21 852 25.16 29.1 84.3 12 -2.6 27.4
18:20 1023 30.21 852 25.16 28.9 84 12 -3 26.6
18:25 1023 30.21 852 25.16 28.8 83.9 13 -2.5 27.5
18:30 1023 30.21 852 25.16 28.8 83.8 13 -2.4 27.6
18:35 1023 30.21 852 25.16 28.7 83.7 13 -2.1 28.1
18:40 1023 30.21 852 25.16 28.7 83.7 13 -2.3 27.9
18:45 1023 30.21 852 25.16 28.7 83.6 13 -2.6 27.4
18:50 1023 30.21 852 25.16 28.6 83.4 12 -3 26.6
18:55 1023 30.21 852 25.16 28.5 83.3 12 -3.1 26.4
19:00 1023 30.21 852 25.16 28.4 83.1 12 -3.1 26.4
19:05 1023 30.21 852 25.16 28.3 82.9 14 -1.9 28.6
19:10 1023 30.21 852 25.16 28.1 82.6 18 1.8 35.2
19:15 1023 30.21 852 25.16 27.9 82.1 21 3.7 38.7
19:20 1023 30.21 852 25.16 27.6 81.7 23 4.9 40.8
19:25 1023 30.21 852 25.16 27.4 81.4 22 4.4 40
19:30 1023 30.21 852 25.16 27 80.6 27 6.8 44.3
19:35 1023 30.21 852 25.16 26.1 79 29 7.2 44.9
19:40 1023 30.21 852 25.16 25.4 77.7 33 8 46.3
19:45 1023 30.21 852 25.16 24.5 76.1 33 7.6 45.7
19:50 1023 30.21 852 25.16 23.6 74.6 32 6 42.8
19:55 1023 30.21 852 25.16 23.1 73.6 32 5.5 42
20:00 1023 30.21 852 25.16 22.8 73.1 32 5.6 42
20:05 1023 30.21 852 25.16 22.4 72.4 36 6.6 43.9
20:10 1023 30.21 852 25.16 21.9 71.5 38 7 44.6
20:15 1023 30.21 852 25.16 21.1 69.9 41 7.4 45.2
20:20 1023 30.21 852 25.16 20.7 69.2 36 5.3 41.5
20:25 1023 30.21 852 25.16 20.9 69.6 34 4.5 40.1
20:30 1023 30.21 852 25.16 21 69.8 32 4 39.2
20:35 1023 30.21 852 25.16 21.3 70.3 30 3 37.3
20:40 1023 30.21 853 25.19 21.1 70 29 2.4 36.4
20:45 1023 30.21 853 25.19 21 69.8 32 3.6 38.5
20:50 1023 30.21 853 25.19 20.6 69.1 31 3.1 37.7
20:55 1023 30.21 853 25.19 20.3 68.6 32 3.1 37.7
21:00 1023 30.21 853 25.19 20 68.1 32 3.1 37.5
21:05 1023 30.21 853 25.19 19.8 67.6 32 2.7 36.9
21:10 1024 30.24 853 25.19 19.8 67.6 31 2.5 36.5
21:15 1024 30.24 853 25.19 19.9 67.9 31 2.5 36.4
21:20 1024 30.24 853 25.19 19.8 67.7 31 2.2 35.9
21:25 1024 30.24 853 25.19 19.7 67.4 32 2.5 36.5
21:30 1024 30.24 853 25.19 19.4 67 31 2.1 35.8
21:35 1024 30.24 853 25.19 19.6 67.2 31 2.2 36
21:40 1024 30.24 853 25.19 19.4 66.9 32 2.3 36.1
21:45 1024 30.24 853 25.19 19.1 66.4 33 2.4 36.4
21:50 1024 30.24 853 25.19 18.9 66.1 31 1.8 35.2
21:55 1024 30.24 853 25.19 18.9 66 32 2.1 35.7
22:00 1023 30.21 853 25.19 19 66.1 31 1.7 35.1
22:05 1023 30.21 853 25.19 19.1 66.4 31 1.6 34.9
22:10 1023 30.21 853 25.19 18.9 66.1 31 1.6 34.8
22:15 1023 30.21 853 25.19 18.9 65.9 31 1.4 34.5
22:20 1023 30.21 853 25.19 18.9 66 31 1.4 34.5
22:25 1023 30.21 853 25.19 18.9 66 30 1 33.8
22:30 1023 30.21 853 25.19 18.9 66.1 30 1.1 34.1
22:35 1023 30.21 853 25.19 19.1 66.3 30 1 33.9
22:40 1023 30.21 853 25.19 18.9 66 30 1 33.9
22:45 1023 30.21 853 25.19 18.9 66.1 29 0.7 33.2
22:50 1023 30.21 853 25.19 19.2 66.5 30 1.2 34.1
22:55 1023 30.21 853 25.19 19.1 66.4 29 1 33.8
23:00 1023 30.21 853 25.19 18.8 65.8 31 1.4 34.6
23:05 1023 30.21 853 25.19 18.2 64.8 32 1.4 34.5
23:10 1024 30.24 853 25.19 17.9 64.3 31 0.9 33.6
23:15 1024 30.24 853 25.19 18.1 64.5 31 0.8 33.4
23:20 1024 30.24 853 25.19 18.1 64.5 31 0.8 33.5
23:25 1024 30.24 853 25.19 18.2 64.8 30 0.5 32.9
23:30 1023 30.21 853 25.19 18.2 64.8 31 1.1 34
23:35 1024 30.24 853 25.19 17.9 64.2 31 0.6 33.1
23:40 1023 30.21 853 25.19 18.3 65 30 0.7 33.3
23:45 1023 30.21 853 25.19 18.3 64.9 31 0.9 33.6
23:50 1023 30.21 853 25.19 18 64.4 31 1 33.8
23:55 1023 30.21 853 25.19 17.7 63.9 32 0.8 33.4
24:00 1023 30.21 853 25.19 17.5 63.4 32 0.7 33.2